Time;durP1;ratioP1;P1;durP2;ratioP2;P2;SDS_P1;SDS_P2;PMS_P1;PMS_P2;Temp;Humidity;BMP_temperature;BMP_pressure;BME280_temperature;BME280_humidity;BME280_pressure;Samples;Min_cycle;Max_cycle;Signal;HPM_P1;HPM_P2
2022/12/17 13:07:29;;;;;;;45.60;27.57;;;;;;;-4.96;100.00;101221.59;5040624;28;20423;-65
2022/12/17 13:09:57;;;;;;;44.73;26.67;;;;;;;-4.61;100.00;101212.50;5031066;28;20496;-66
2022/12/17 13:12:28;;;;;;;48.30;27.97;;;;;;;-4.43;100.00;101208.75;5033671;28;20416;-66
2022/12/17 13:15:06;;;;;;;46.00;28.70;;;;;;;-4.25;100.00;101203.34;5033609;28;20475;-66
2022/12/17 13:17:41;;;;;;;48.27;27.77;;;;;;;-4.08;100.00;101202.06;5032766;28;20408;-67
2022/12/17 13:20:24;;;;;;;51.87;29.37;;;;;;;-4.53;100.00;101202.66;5032064;28;20819;-66
2022/12/17 13:22:52;;;;;;;46.27;27.97;;;;;;;-4.39;100.00;101195.44;5024607;28;20554;-66
2022/12/17 13:25:21;;;;;;;44.90;26.60;;;;;;;-4.42;100.00;101202.94;5033336;28;20405;-66
2022/12/17 13:27:48;;;;;;;42.33;26.77;;;;;;;-4.68;100.00;101208.13;5032677;28;21061;-66
2022/12/17 13:30:16;;;;;;;41.43;27.03;;;;;;;-5.00;100.00;101212.31;5033142;28;20484;-67
2022/12/17 13:33:19;;;;;;;42.07;26.93;;;;;;;-5.26;100.00;101204.91;5033209;28;20420;-67
2022/12/17 13:36:23;;;;;;;48.40;29.77;;;;;;;-5.47;100.00;101205.13;5033236;28;20397;-66
2022/12/17 13:39:19;;;;;;;47.83;27.70;;;;;;;-5.67;100.00;101195.38;5031120;28;20442;-67
2022/12/17 13:41:45;;;;;;;48.17;27.30;;;;;;;-5.76;100.00;101202.63;5033243;28;20467;-67
2022/12/17 13:44:39;;;;;;;42.27;27.60;;;;;;;-5.62;100.00;101201.38;5032911;28;20420;-67
2022/12/17 13:47:04;;;;;;;44.23;28.63;;;;;;;-5.58;100.00;101198.16;5030778;28;20182;-66
2022/12/17 13:49:30;;;;;;;49.07;28.63;;;;;;;-5.35;100.00;101203.84;5033135;28;20424;-66
2022/12/17 13:52:00;;;;;;;42.00;24.43;;;;;;;-5.34;100.00;101207.19;5020148;28;20737;-67
2022/12/17 13:54:26;;;;;;;52.00;28.87;;;;;;;-5.44;100.00;101197.72;5033113;28;20413;-67
2022/12/17 13:56:52;;;;;;;51.93;28.90;;;;;;;-5.40;100.00;101210.38;5030702;28;20518;-67
2022/12/17 13:59:23;;;;;;;48.57;28.07;;;;;;;-5.42;100.00;101201.09;5031962;28;20240;-65
2022/12/17 14:01:51;;;;;;;46.63;28.57;;;;;;;-5.68;100.00;101211.22;5032759;28;20460;-66
2022/12/17 14:04:26;;;;;;;43.93;25.07;;;;;;;-5.87;100.00;101215.66;5029917;28;20421;-65
2022/12/17 14:06:57;;;;;;;47.90;26.63;;;;;;;-5.96;100.00;101214.56;5040684;28;21056;-67
2022/12/17 14:09:30;;;;;;;44.73;28.30;;;;;;;-5.76;100.00;101222.69;5032423;28;20409;-67
2022/12/17 14:14:45;;;;;;;46.17;26.27;;;;;;;-6.19;100.00;101225.59;5032672;28;20537;-65
2022/12/17 14:17:22;;;;;;;53.97;30.03;;;;;;;-6.19;100.00;101229.72;5032208;28;20405;-66
2022/12/17 14:20:01;;;;;;;45.27;26.83;;;;;;;-6.18;100.00;101231.44;5023784;28;20428;-66
2022/12/17 14:22:32;;;;;;;49.87;26.73;;;;;;;-6.35;100.00;101234.25;5024933;28;21002;-66
2022/12/17 14:24:58;;;;;;;41.70;25.53;;;;;;;-6.31;100.00;101235.19;5032841;28;20416;-66
2022/12/17 14:27:30;;;;;;;51.90;28.27;;;;;;;-6.21;100.00;101233.84;5031572;28;20424;-67
2022/12/17 14:29:55;;;;;;;51.30;27.33;;;;;;;-5.98;100.00;101231.22;5032410;28;20420;-68
2022/12/17 14:32:25;;;;;;;49.37;26.00;;;;;;;-6.09;100.00;101239.25;5032041;28;20436;-67
2022/12/17 14:34:50;;;;;;;45.70;26.80;;;;;;;-6.26;100.00;101235.34;5032322;28;20179;-68
2022/12/17 14:37:24;;;;;;;53.30;26.30;;;;;;;-6.30;100.00;101231.03;5031405;28;20435;-68
2022/12/17 14:39:53;;;;;;;51.67;27.17;;;;;;;-6.51;100.00;101237.03;5032447;28;20200;-67
2022/12/17 14:42:28;;;;;;;55.00;28.43;;;;;;;-6.66;100.00;101243.22;5031638;28;20492;-67
2022/12/17 14:44:57;;;;;;;50.67;29.53;;;;;;;-6.71;100.00;101254.75;5032098;28;20902;-66
2022/12/17 14:47:27;;;;;;;57.73;29.20;;;;;;;-6.69;100.00;101259.78;5031060;28;20420;-67
2022/12/17 14:50:10;;;;;;;48.03;28.50;;;;;;;-6.45;100.00;101259.75;5027483;28;20424;-66
2022/12/17 14:52:36;;;;;;;51.00;29.73;;;;;;;-6.26;100.00;101257.88;5017298;28;20482;-67
2022/12/17 14:55:23;;;;;;;54.07;29.73;;;;;;;-6.43;100.00;101257.34;5028229;28;20409;-67
2022/12/17 14:57:49;;;;;;;56.23;30.63;;;;;;;-6.14;100.00;101255.78;5026563;28;20280;-68
2022/12/17 15:00:19;;;;;;;54.87;30.27;;;;;;;-6.12;100.00;101259.19;5030923;28;20913;-67
2022/12/17 15:02:50;;;;;;;53.10;29.00;;;;;;;-5.98;100.00;101262.09;5033074;28;20456;-68
2022/12/17 15:05:16;;;;;;;58.60;31.37;;;;;;;-5.98;100.00;101261.28;5034412;28;20910;-68
2022/12/17 15:07:41;;;;;;;55.77;29.93;;;;;;;-5.89;100.00;101254.88;5037018;28;20455;-68
2022/12/17 15:10:12;;;;;;;58.87;31.30;;;;;;;-5.79;100.00;101251.00;5031446;28;20533;-67
2022/12/17 15:12:40;;;;;;;62.57;31.63;;;;;;;-5.85;100.00;101259.19;5031472;28;20182;-67
2022/12/17 15:15:06;;;;;;;53.47;29.73;;;;;;;-5.71;100.00;101257.09;5031561;28;20497;-67
2022/12/17 15:17:32;;;;;;;52.47;30.33;;;;;;;-5.76;100.00;101262.78;5020250;28;20888;-66
2022/12/17 15:20:00;;;;;;;56.93;32.53;;;;;;;-5.67;100.00;101266.44;5031519;28;20501;-67
2022/12/17 15:22:25;;;;;;;52.37;30.03;;;;;;;-5.62;100.00;101260.69;5029482;28;20186;-67
2022/12/17 15:24:51;;;;;;;53.37;29.63;;;;;;;-5.80;100.00;101269.34;5031017;28;20420;-67
2022/12/17 15:27:16;;;;;;;52.37;31.33;;;;;;;-5.82;100.00;101277.63;5015835;28;20273;-67
2022/12/17 15:29:42;;;;;;;49.80;29.67;;;;;;;-6.10;100.00;101275.13;5031656;28;20653;-68
2022/12/17 15:32:19;;;;;;;54.63;30.40;;;;;;;-6.38;100.00;101271.69;5031268;28;20181;-68
2022/12/17 15:34:45;;;;;;;46.87;27.97;;;;;;;-6.51;100.00;101277.06;5031416;28;20420;-67
2022/12/17 15:37:17;;;;;;;56.10;29.43;;;;;;;-6.52;100.00;101278.75;5025888;28;20428;-68
2022/12/17 15:39:43;;;;;;;54.30;29.63;;;;;;;-6.38;100.00;101284.22;5023565;28;20629;-68
2022/12/17 15:44:52;;;;;;;54.30;31.67;;;;;;;-6.09;100.00;101283.47;5031162;28;20414;-67
2022/12/17 15:47:18;;;;;;;54.03;30.10;;;;;;;-5.99;100.00;101290.50;5046119;28;20506;-66
2022/12/17 15:49:43;;;;;;;55.23;29.43;;;;;;;-5.77;100.00;101286.97;5027004;28;20562;-68
2022/12/17 15:52:09;;;;;;;60.53;30.83;;;;;;;-5.73;100.00;101292.94;5016221;28;20191;-68
2022/12/17 15:54:34;;;;;;;56.83;31.83;;;;;;;-5.75;100.00;101289.56;5015672;28;20174;-66
2022/12/17 15:57:00;;;;;;;54.13;29.83;;;;;;;-5.75;100.00;101292.91;5012946;28;20205;-67
2022/12/17 15:59:25;;;;;;;52.57;32.23;;;;;;;-5.62;100.00;101285.78;5020647;28;20619;-67
2022/12/17 16:01:50;;;;;;;61.57;33.57;;;;;;;-5.63;100.00;101284.06;5021573;28;20610;-71
2022/12/17 16:04:15;;;;;;;53.90;31.67;;;;;;;-5.80;100.00;101291.03;5031044;28;20182;-71
2022/12/17 16:06:41;;;;;;;53.30;30.87;;;;;;;-5.68;100.00;101292.31;5023215;28;21040;-69
2022/12/17 16:09:06;;;;;;;57.73;32.47;;;;;;;-5.49;100.00;101289.50;5019615;28;20186;-69
2022/12/17 16:11:31;;;;;;;55.10;31.33;;;;;;;-5.43;100.00;101289.69;5025252;28;20214;-65
2022/12/17 16:13:57;;;;;;;54.47;30.57;;;;;;;-5.63;100.00;101284.06;5021646;28;20201;-67
2022/12/17 16:16:24;;;;;;;51.20;30.40;;;;;;;-5.88;100.00;101294.19;5024925;28;20196;-67
2022/12/17 16:18:52;;;;;;;54.90;31.60;;;;;;;-6.26;100.00;101300.44;5044842;28;20189;-67
2022/12/17 16:21:17;;;;;;;55.90;32.40;;;;;;;-6.40;100.00;101308.38;5022511;28;20432;-68
2022/12/17 16:23:42;;;;;;;57.00;32.03;;;;;;;-6.53;100.00;101301.22;5042947;28;20534;-66
2022/12/17 16:26:09;;;;;;;61.40;33.73;;;;;;;-6.49;100.00;101313.03;5023849;28;20191;-68
2022/12/17 16:28:35;;;;;;;62.77;33.47;;;;;;;-6.46;100.00;101312.28;5027954;28;20181;-69
2022/12/17 16:31:03;;;;;;;63.97;34.23;;;;;;;-6.42;100.00;101309.97;5025940;28;20423;-67
2022/12/17 16:33:33;;;;;;;58.17;33.57;;;;;;;-6.29;100.00;101316.22;5016300;28;20464;-69
2022/12/17 16:35:58;;;;;;;55.83;31.33;;;;;;;-6.23;100.00;101320.59;5012657;28;20513;-67
2022/12/17 16:38:23;;;;;;;60.60;32.80;;;;;;;-6.37;100.00;101318.47;5014650;28;20528;-67
2022/12/17 16:40:54;;;;;;;64.50;32.60;;;;;;;-6.13;100.00;101321.75;5016284;28;20179;-68
2022/12/17 16:43:19;;;;;;;56.87;32.53;;;;;;;-5.91;100.00;101318.28;5036799;28;20216;-69
2022/12/17 16:45:51;;;;;;;54.83;32.97;;;;;;;-5.91;100.00;101314.13;5027644;28;20416;-69
2022/12/17 16:48:18;;;;;;;60.87;33.63;;;;;;;-6.05;100.00;101317.88;5016078;28;20189;-68
2022/12/17 16:50:46;;;;;;;65.43;34.77;;;;;;;-6.21;100.00;101319.84;5015294;28;20907;-68
2022/12/17 16:53:12;;;;;;;59.47;31.70;;;;;;;-6.13;100.00;101322.59;5015623;28;20437;-68
2022/12/17 16:55:49;;;;;;;59.57;34.63;;;;;;;-6.10;100.00;101319.34;5014735;28;20417;-69
2022/12/17 16:58:18;;;;;;;62.50;32.13;;;;;;;-6.13;100.00;101320.09;5021603;28;20217;-68
2022/12/17 17:00:45;;;;;;;58.37;32.40;;;;;;;-6.54;100.00;101320.38;5014999;28;20476;-67
2022/12/17 17:03:10;;;;;;;67.90;35.07;;;;;;;-6.38;100.00;101329.28;5034649;28;20862;-69
2022/12/17 17:05:43;;;;;;;63.03;33.17;;;;;;;-6.46;100.00;101330.69;5043639;28;20454;-69
2022/12/17 17:08:08;;;;;;;62.13;32.33;;;;;;;-6.34;100.00;101332.75;5023449;28;20257;-69
2022/12/17 17:10:35;;;;;;;59.37;33.20;;;;;;;-6.20;100.00;101339.09;5018963;28;20998;-67
2022/12/17 17:13:01;;;;;;;61.87;33.30;;;;;;;-6.40;100.00;101330.03;5036645;28;20241;-67
2022/12/17 17:15:26;;;;;;;55.57;30.87;;;;;;;-6.62;100.00;101341.81;5019862;28;20967;-68
2022/12/17 17:17:51;;;;;;;63.67;33.40;;;;;;;-6.55;100.00;101330.34;5022411;28;20193;-69
2022/12/17 17:20:17;;;;;;;63.70;35.07;;;;;;;-6.50;100.00;101331.34;5026231;28;20192;-69
2022/12/17 17:22:42;;;;;;;69.47;35.33;;;;;;;-6.38;100.00;101328.44;5025499;28;20215;-68
2022/12/17 17:25:08;;;;;;;62.07;33.37;;;;;;;-6.35;100.00;101326.03;5023982;28;20262;-65
2022/12/17 17:27:33;;;;;;;63.67;32.97;;;;;;;-6.23;100.00;101318.94;5022591;28;20189;-66
2022/12/17 17:29:58;;;;;;;66.40;33.87;;;;;;;-6.15;100.00;101324.22;5027623;28;20193;-68
2022/12/17 17:32:24;;;;;;;64.13;33.47;;;;;;;-6.21;100.00;101322.34;5037435;28;20202;-67
2022/12/17 17:34:50;;;;;;;66.73;34.33;;;;;;;-6.09;100.00;101329.44;5034278;28;20182;-68
2022/12/17 17:37:15;;;;;;;62.27;33.60;;;;;;;-6.31;100.00;101330.38;5028633;28;20627;-68
2022/12/17 17:39:41;;;;;;;68.10;33.63;;;;;;;-6.40;100.00;101317.50;5038995;28;20176;-67
2022/12/17 17:42:06;;;;;;;69.03;35.10;;;;;;;-6.28;100.00;101332.97;5015023;28;20535;-68
2022/12/17 17:44:31;;;;;;;62.60;34.53;;;;;;;-6.28;100.00;101332.97;5014542;28;20196;-69
2022/12/17 17:46:57;;;;;;;67.57;34.40;;;;;;;-6.32;100.00;101324.50;5028631;28;20236;-69
2022/12/17 17:49:22;;;;;;;72.03;35.63;;;;;;;-6.21;100.00;101334.88;5026139;28;20549;-68
2022/12/17 17:51:47;;;;;;;63.10;31.83;;;;;;;-6.33;100.00;101335.28;5014070;28;20546;-66
2022/12/17 17:54:12;;;;;;;61.27;31.03;;;;;;;-6.41;100.00;101336.69;5017339;28;20252;-67
2022/12/17 17:56:45;;;;;;;56.53;30.90;;;;;;;-6.49;100.00;101341.44;5043656;28;20219;-66
2022/12/17 17:59:18;;;;;;;61.83;31.27;;;;;;;-6.56;100.00;101339.53;5024428;28;20336;-65
2022/12/17 18:01:46;;;;;;;56.70;30.20;;;;;;;-6.78;100.00;101342.03;5027100;28;20888;-66
2022/12/17 18:04:14;;;;;;;66.43;30.03;;;;;;;-6.75;100.00;101342.16;5034424;28;20422;-66
2022/12/17 18:06:41;;;;;;;61.37;32.63;;;;;;;-6.70;100.00;101344.03;5043411;28;20431;-66
2022/12/17 18:09:07;;;;;;;62.77;32.03;;;;;;;-6.61;100.00;101346.03;5029032;28;20426;-66
2022/12/17 18:11:34;;;;;;;60.43;30.70;;;;;;;-6.68;100.00;101344.09;5022375;28;20414;-66
2022/12/17 18:14:01;;;;;;;60.77;31.27;;;;;;;-6.77;100.00;101343.75;5031435;28;20294;-68
2022/12/17 18:16:46;;;;;;;56.53;30.50;;;;;;;-6.86;100.00;101351.75;5032716;28;20507;-67
2022/12/17 18:19:21;;;;;;;51.30;27.63;;;;;;;-6.85;100.00;101350.97;5032273;28;20996;-67
2022/12/17 18:21:47;;;;;;;49.23;27.77;;;;;;;-6.78;100.00;101357.91;5031862;28;20451;-66
2022/12/17 18:24:20;;;;;;;57.27;28.73;;;;;;;-6.71;100.00;101361.47;5032323;28;20419;-66
2022/12/17 18:26:46;;;;;;;51.77;28.80;;;;;;;-6.78;100.00;101362.91;5029086;28;20438;-67
2022/12/17 18:29:16;;;;;;;51.83;26.27;;;;;;;-6.84;100.00;101368.53;5032375;28;20407;-66
2022/12/17 18:31:41;;;;;;;51.77;29.13;;;;;;;-6.83;100.00;101359.41;5032119;28;20902;-67
2022/12/17 18:34:11;;;;;;;51.30;26.30;;;;;;;-6.72;100.00;101358.13;5032246;28;20509;-66
2022/12/17 18:36:38;;;;;;;52.73;28.47;;;;;;;-6.69;100.00;101368.25;5031756;28;20184;-66
2022/12/17 18:39:16;;;;;;;61.33;29.07;;;;;;;-6.82;100.00;101363.63;5027831;28;20471;-68
2022/12/17 18:44:27;;;;;;;53.90;28.03;;;;;;;-7.01;100.00;101377.94;5031957;28;20414;-67
2022/12/17 18:46:53;;;;;;;50.93;27.40;;;;;;;-6.84;100.00;101378.53;5031566;28;20509;-66
2022/12/17 18:49:20;;;;;;;56.10;28.50;;;;;;;-6.73;100.00;101381.44;5031872;28;20518;-67
2022/12/17 18:51:47;;;;;;;49.87;26.50;;;;;;;-6.63;100.00;101385.16;5018680;28;20189;-66
2022/12/17 18:54:16;;;;;;;50.73;26.07;;;;;;;-6.56;100.00;101389.59;5031820;28;20452;-65
2022/12/17 18:56:42;;;;;;;57.03;29.03;;;;;;;-6.70;100.00;101383.22;5031045;28;20474;-66
2022/12/17 18:59:10;;;;;;;51.00;27.53;;;;;;;-6.87;100.00;101382.59;5030527;28;20472;-67
2022/12/17 19:01:35;;;;;;;55.50;29.57;;;;;;;-6.75;100.00;101380.53;5022966;28;20459;-66
2022/12/17 19:04:03;;;;;;;50.63;28.17;;;;;;;-6.56;100.00;101383.72;5041467;28;20915;-66
2022/12/17 19:06:28;;;;;;;50.63;27.30;;;;;;;-6.56;100.00;101382.06;5031118;28;20641;-66
2022/12/17 19:08:54;;;;;;;55.10;26.80;;;;;;;-6.75;100.00;101388.03;5020613;28;20423;-65
2022/12/17 19:11:21;;;;;;;50.00;27.20;;;;;;;-6.76;100.00;101383.00;5028850;28;20190;-66
2022/12/17 19:13:47;;;;;;;53.17;28.10;;;;;;;-6.92;100.00;101387.44;5031464;28;20324;-66
2022/12/17 19:16:18;;;;;;;54.60;28.40;;;;;;;-6.90;100.00;101392.50;5026705;28;20428;-65
2022/12/17 19:18:49;;;;;;;59.90;30.50;;;;;;;-6.93;100.00;101390.72;5026334;28;20414;-65
2022/12/17 19:21:14;;;;;;;54.23;28.23;;;;;;;-6.93;100.00;101383.22;5031307;28;20469;-64
2022/12/17 19:23:41;;;;;;;56.20;30.20;;;;;;;-6.97;100.00;101381.38;5031305;28;20473;-65
2022/12/17 19:26:14;;;;;;;57.20;30.93;;;;;;;-7.02;100.00;101372.84;5029685;28;20182;-65
2022/12/17 19:28:43;;;;;;;54.37;29.50;;;;;;;-7.01;100.00;101375.44;5031379;28;20517;-66
2022/12/17 19:31:09;;;;;;;58.90;29.50;;;;;;;-6.94;100.00;101378.16;5031232;28;20500;-65
2022/12/17 19:33:35;;;;;;;54.57;29.40;;;;;;;-7.00;100.00;101378.78;5031178;28;20976;-65
2022/12/17 19:36:07;;;;;;;51.47;28.20;;;;;;;-7.12;100.00;101389.16;5030627;28;20425;-65
2022/12/17 19:38:33;;;;;;;58.37;27.60;;;;;;;-7.01;100.00;101390.44;5031310;28;20226;-66
2022/12/17 19:41:04;;;;;;;51.73;27.60;;;;;;;-6.89;100.00;101391.69;5030843;28;20408;-65
2022/12/17 19:43:30;;;;;;;59.23;28.63;;;;;;;-7.11;100.00;101403.38;5031220;28;20479;-65
2022/12/17 19:46:03;;;;;;;61.73;29.40;;;;;;;-7.13;100.00;101400.81;5030533;28;20922;-65
2022/12/17 19:48:33;;;;;;;50.87;27.33;;;;;;;-7.13;100.00;101390.81;5031234;28;20258;-65
2022/12/17 19:50:59;;;;;;;49.17;26.90;;;;;;;-7.17;100.00;101388.13;5021395;28;20444;-65
2022/12/17 19:53:26;;;;;;;47.57;27.03;;;;;;;-6.98;100.00;101389.69;5027209;28;20408;-65
2022/12/17 19:55:56;;;;;;;50.37;26.17;;;;;;;-7.11;100.00;101395.03;5046061;28;20420;-63
2022/12/17 19:58:23;;;;;;;47.40;24.70;;;;;;;-6.90;100.00;101400.00;5029844;28;20431;-65
2022/12/17 20:00:49;;;;;;;53.93;28.43;;;;;;;-6.84;100.00;101400.22;5030839;28;20489;-66
2022/12/17 20:03:15;;;;;;;43.60;25.73;;;;;;;-6.74;100.00;101401.44;5031998;28;20462;-64
2022/12/17 20:05:44;;;;;;;50.90;24.60;;;;;;;-6.88;100.00;101401.75;5031193;28;20426;-66
2022/12/17 20:08:10;;;;;;;50.00;25.57;;;;;;;-7.09;100.00;101414.28;5045728;28;20209;-67
2022/12/17 20:10:38;;;;;;;53.70;29.17;;;;;;;-7.11;100.00;101413.38;5030855;28;20521;-66
2022/12/17 20:13:03;;;;;;;49.53;26.83;;;;;;;-6.90;100.00;101417.50;5034597;28;20265;-66
2022/12/17 20:15:29;;;;;;;50.17;25.77;;;;;;;-7.13;100.00;101414.97;5034913;28;20416;-66
2022/12/17 20:17:54;;;;;;;44.63;24.03;;;;;;;-7.16;100.00;101417.34;5032693;28;20663;-66
2022/12/17 20:20:20;;;;;;;43.33;23.63;;;;;;;-7.00;100.00;101432.16;5034581;28;20211;-66
2022/12/17 20:22:45;;;;;;;47.70;25.40;;;;;;;-6.88;100.00;101433.44;5033371;28;20235;-67
2022/12/17 20:25:10;;;;;;;48.53;26.60;;;;;;;-6.81;100.00;101426.22;5033235;28;20548;-66
2022/12/17 20:27:39;;;;;;;46.03;25.63;;;;;;;-6.83;100.00;101431.97;5032511;28;20182;-67
2022/12/17 20:30:05;;;;;;;48.43;25.50;;;;;;;-6.93;100.00;101435.75;5034553;28;20178;-66
2022/12/17 20:32:34;;;;;;;49.33;25.50;;;;;;;-7.25;100.00;101422.00;5034266;28;20902;-66
2022/12/17 20:34:59;;;;;;;52.83;26.63;;;;;;;-7.25;100.00;101429.50;5032898;28;20506;-66
2022/12/17 20:37:24;;;;;;;45.80;25.80;;;;;;;-7.31;100.00;101440.09;5033656;28;20791;-66
2022/12/17 20:39:49;;;;;;;51.83;27.23;;;;;;;-7.27;100.00;101436.91;5033049;28;20702;-65
2022/12/17 20:42:16;;;;;;;53.50;26.33;;;;;;;-7.28;100.00;101435.25;5034114;28;20314;-67
2022/12/17 20:44:42;;;;;;;50.63;25.83;;;;;;;-7.36;100.00;101422.41;5034285;28;20180;-67
2022/12/17 20:47:07;;;;;;;52.83;26.13;;;;;;;-7.14;100.00;101424.13;5033607;28;20425;-67
2022/12/17 20:49:32;;;;;;;48.83;25.87;;;;;;;-6.91;100.00;101418.28;5033848;28;20179;-66
2022/12/17 20:51:58;;;;;;;55.80;26.83;;;;;;;-7.05;100.00;101422.78;5029124;28;20243;-66
2022/12/17 20:54:23;;;;;;;50.97;25.50;;;;;;;-7.26;100.00;101417.78;5025646;28;20252;-66
2022/12/17 20:56:48;;;;;;;52.17;25.10;;;;;;;-7.22;100.00;101420.44;5033657;28;20200;-66
2022/12/17 20:59:16;;;;;;;48.27;26.03;;;;;;;-7.22;100.00;101417.09;5033612;28;20677;-63
2022/12/17 21:01:41;;;;;;;49.33;25.50;;;;;;;-7.09;100.00;101424.31;5028562;28;20196;-66
2022/12/17 21:04:07;;;;;;;49.13;25.70;;;;;;;-7.19;100.00;101418.09;5020525;28;21235;-68
2022/12/17 21:06:43;;;;;;;52.17;26.87;;;;;;;-7.23;100.00;101426.25;5018849;28;20719;-68
2022/12/17 21:09:10;;;;;;;51.27;26.60;;;;;;;-7.20;100.00;101433.88;5021923;28;20189;-66
2022/12/17 21:11:39;;;;;;;52.63;27.23;;;;;;;-7.18;100.00;101438.94;5016457;28;20418;-67
2022/12/17 21:14:13;;;;;;;62.87;27.57;;;;;;;-7.27;100.00;101444.41;5016013;28;20465;-68
2022/12/17 21:16:39;;;;;;;49.77;26.10;;;;;;;-7.02;100.00;101440.38;5024786;28;20438;-68
2022/12/17 21:19:06;;;;;;;54.47;27.23;;;;;;;-6.95;100.00;101446.50;5015911;28;20415;-71
2022/12/17 21:21:34;;;;;;;44.43;25.57;;;;;;;-6.89;100.00;101442.56;5016174;28;20907;-66
2022/12/17 21:24:03;;;;;;;54.60;25.83;;;;;;;-7.08;100.00;101453.53;5015359;28;20514;-65
2022/12/17 21:26:34;;;;;;;49.27;26.80;;;;;;;-7.12;100.00;101451.69;5013699;28;20978;-68
2022/12/17 21:29:03;;;;;;;51.73;26.33;;;;;;;-7.23;100.00;101450.41;5016144;28;20451;-68
2022/12/17 21:31:32;;;;;;;57.13;26.87;;;;;;;-7.13;100.00;101445.84;5018250;28;20445;-67
2022/12/17 21:34:05;;;;;;;53.63;26.60;;;;;;;-7.10;100.00;101450.09;5033524;28;20415;-67
2022/12/17 21:36:32;;;;;;;54.73;28.07;;;;;;;-7.03;100.00;101452.06;5019519;28;20501;-69
2022/12/17 21:39:00;;;;;;;51.90;26.07;;;;;;;-7.23;100.00;101455.41;5034828;28;20517;-68
2022/12/17 21:41:32;;;;;;;50.33;27.63;;;;;;;-7.14;100.00;101455.78;5030821;28;20930;-69
2022/12/17 21:44:01;;;;;;;52.87;26.37;;;;;;;-7.27;100.00;101464.44;5029430;28;20473;-68
2022/12/17 21:46:29;;;;;;;58.17;29.27;;;;;;;-7.18;100.00;101459.81;5029634;28;20528;-69
2022/12/17 21:48:55;;;;;;;56.37;28.53;;;;;;;-7.05;100.00;101440.28;5032909;28;20910;-67
2022/12/17 21:51:21;;;;;;;52.57;28.60;;;;;;;-7.07;100.00;101445.22;5029851;28;20423;-67
2022/12/17 21:53:51;;;;;;;51.70;27.13;;;;;;;-7.19;100.00;101448.09;5022044;28;20437;-67
2022/12/17 21:56:17;;;;;;;52.57;27.83;;;;;;;-7.26;100.00;101441.13;5039806;28;20554;-69
2022/12/17 21:58:45;;;;;;;62.03;30.17;;;;;;;-7.36;100.00;101451.56;5031695;28;20962;-69
2022/12/17 22:01:12;;;;;;;58.87;28.93;;;;;;;-7.32;100.00;101450.88;5018752;28;20554;-69
2022/12/17 22:03:39;;;;;;;58.77;27.10;;;;;;;-7.41;100.00;101445.53;5042225;28;20822;-67
2022/12/17 22:06:12;;;;;;;54.97;28.33;;;;;;;-7.58;100.00;101434.84;5033171;28;20430;-69
2022/12/17 22:08:37;;;;;;;58.73;26.63;;;;;;;-7.54;100.00;101432.53;5017398;28;21254;-69
2022/12/17 22:11:17;;;;;;;52.70;27.10;;;;;;;-7.65;100.00;101434.59;5016596;28;20566;-66
2022/12/17 22:14:02;;;;;;;57.37;27.87;;;;;;;-7.65;100.00;101438.75;5017773;28;20179;-69
2022/12/17 22:16:42;;;;;;;59.33;27.57;;;;;;;-7.74;100.00;101450.84;5017914;28;20838;-70
2022/12/17 22:19:15;;;;;;;58.83;25.90;;;;;;;-7.86;100.00;101452.03;5020409;28;20476;-69
2022/12/17 22:21:43;;;;;;;56.87;25.87;;;;;;;-7.92;100.00;101440.94;5013346;28;20480;-69
2022/12/17 22:24:20;;;;;;;45.17;20.17;;;;;;;-8.00;100.00;101458.94;5016904;28;20428;-69
2022/12/17 22:26:58;;;;;;;58.57;27.17;;;;;;;-7.97;100.00;101446.56;5013011;28;20524;-71
2022/12/17 22:34:58;;;;;;;56.27;26.43;;;;;;;-8.13;100.00;101455.03;5015783;28;20872;-70
2022/12/17 22:37:23;;;;;;;51.40;26.10;;;;;;;-8.25;100.00;101449.50;5034604;28;20515;-69
2022/12/17 22:39:49;;;;;;;49.80;23.30;;;;;;;-8.21;100.00;101458.84;5013184;28;20777;-70
2022/12/17 22:44:58;;;;;;;52.33;25.33;;;;;;;-8.16;100.00;101464.91;5013386;28;20552;-68
2022/12/17 22:47:23;;;;;;;50.30;25.37;;;;;;;-8.30;100.00;101460.94;5013104;28;20449;-68
2022/12/17 22:49:49;;;;;;;48.20;24.20;;;;;;;-8.28;100.00;101464.38;5011582;28;20182;-68
2022/12/17 22:52:14;;;;;;;46.80;24.03;;;;;;;-8.39;100.00;101468.03;5011975;28;20179;-70
2022/12/17 22:54:39;;;;;;;59.87;25.77;;;;;;;-8.45;100.00;101459.44;5019252;28;20541;-68
2022/12/17 22:57:13;;;;;;;46.97;23.60;;;;;;;-8.66;100.00;101469.34;5017064;28;20194;-68
2022/12/17 22:59:39;;;;;;;45.07;24.50;;;;;;;-8.60;100.00;101476.28;5018466;28;20226;-69
2022/12/17 23:02:04;;;;;;;50.10;23.93;;;;;;;-8.55;100.00;101467.34;5013825;28;20472;-70
2022/12/17 23:04:30;;;;;;;45.90;23.63;;;;;;;-8.52;100.00;101462.50;5021621;28;20225;-68
2022/12/17 23:06:55;;;;;;;49.47;23.90;;;;;;;-8.57;100.00;101463.91;5015999;28;20826;-68
2022/12/17 23:09:22;;;;;;;48.20;23.73;;;;;;;-8.51;100.00;101460.84;5025019;28;20232;-67
2022/12/17 23:11:48;;;;;;;49.07;25.03;;;;;;;-8.57;100.00;101478.03;5021852;28;20213;-69
2022/12/17 23:14:13;;;;;;;45.60;24.93;;;;;;;-8.65;100.00;101478.53;5025614;28;20436;-69
2022/12/17 23:16:39;;;;;;;45.07;24.63;;;;;;;-8.64;100.00;101476.94;5016056;28;20191;-67
2022/12/17 23:19:07;;;;;;;48.37;24.03;;;;;;;-8.57;100.00;101473.06;5013721;28;20676;-68
2022/12/17 23:21:33;;;;;;;65.33;30.00;;;;;;;-8.65;100.00;101466.06;5012652;28;20197;-69
2022/12/17 23:23:58;;;;;;;64.10;29.87;;;;;;;-8.74;100.00;101462.28;5024573;28;20836;-69
2022/12/17 23:26:27;;;;;;;59.17;28.27;;;;;;;-8.92;100.00;101468.13;5013837;28;20198;-69
2022/12/17 23:29:03;;;;;;;50.40;25.50;;;;;;;-8.89;100.00;101469.91;5016649;28;20187;-68
2022/12/17 23:31:35;;;;;;;50.80;26.23;;;;;;;-8.84;100.00;101468.50;5011513;28;20421;-68
2022/12/17 23:34:01;;;;;;;46.97;24.53;;;;;;;-8.83;100.00;101475.19;5015671;28;20453;-70
2022/12/17 23:36:26;;;;;;;42.33;22.57;;;;;;;-8.86;100.00;101467.59;5044169;28;20433;-69
2022/12/17 23:38:55;;;;;;;43.90;23.80;;;;;;;-8.87;100.00;101465.88;5021334;28;20986;-70
2022/12/17 23:41:22;;;;;;;50.20;24.97;;;;;;;-8.85;100.00;101474.28;5021391;28;20186;-67
2022/12/17 23:43:49;;;;;;;47.63;24.33;;;;;;;-8.90;100.00;101480.69;5012412;28;21109;-67
2022/12/17 23:46:16;;;;;;;44.30;23.37;;;;;;;-8.84;100.00;101480.97;5025585;28;20443;-65
2022/12/17 23:48:43;;;;;;;43.93;23.63;;;;;;;-8.88;100.00;101479.13;5029896;28;20911;-69
2022/12/17 23:51:09;;;;;;;44.87;22.97;;;;;;;-8.98;100.00;101473.72;5042512;28;20445;-67
2022/12/17 23:53:35;;;;;;;48.77;23.13;;;;;;;-9.07;100.00;101475.75;5031259;28;20507;-67
2022/12/17 23:56:17;;;;;;;46.67;22.83;;;;;;;-9.12;100.00;101467.22;5023998;28;20442;-68
2022/12/17 23:58:44;;;;;;;46.00;23.20;;;;;;;-9.23;100.00;101466.69;5035369;28;20439;-66
